createdAt,value
2022-11-22T00:00:39.463Z,8.90
2022-11-22T00:03:06.992Z,8.80
2022-11-22T00:05:34.516Z,8.80
2022-11-22T00:08:02.064Z,8.70
2022-11-22T00:10:29.576Z,8.70
2022-11-22T00:12:57.100Z,8.70
2022-11-22T00:15:25.464Z,8.60
2022-11-22T00:17:52.947Z,8.60
2022-11-22T00:20:21.241Z,8.50
2022-11-22T00:22:49.983Z,8.50
2022-11-22T00:25:17.496Z,8.50
2022-11-22T00:27:45.021Z,8.50
2022-11-22T00:30:13.359Z,8.60
2022-11-22T00:32:40.858Z,8.60
2022-11-22T00:35:08.383Z,8.60
2022-11-22T00:37:35.938Z,8.60
2022-11-22T00:40:03.453Z,8.50
2022-11-22T00:42:31.737Z,8.70
2022-11-22T00:44:59.280Z,8.70
2022-11-22T00:47:27.575Z,8.60
2022-11-22T00:49:55.867Z,8.50
2022-11-22T00:52:23.453Z,8.50
2022-11-22T00:54:54.751Z,8.50
2022-11-22T00:57:18.593Z,8.40
2022-11-22T00:59:47.304Z,8.40
2022-11-22T01:02:14.829Z,8.40
2022-11-22T01:04:42.365Z,8.60
2022-11-22T01:07:10.035Z,8.50
2022-11-22T01:09:37.524Z,8.50
2022-11-22T01:12:05.033Z,8.40
2022-11-22T01:14:32.913Z,8.30
2022-11-22T01:17:00.421Z,8.20
2022-11-22T01:19:28.190Z,8.20
2022-11-22T01:21:55.498Z,8.10
2022-11-22T01:24:23.022Z,8.10
2022-11-22T01:26:50.537Z,8.10
2022-11-22T01:29:18.160Z,8.00
2022-11-22T01:31:45.673Z,8.00
2022-11-22T01:34:13.194Z,8.30
2022-11-22T01:36:40.741Z,8.30
2022-11-22T01:39:08.269Z,8.30
2022-11-22T01:41:36.542Z,8.20
2022-11-22T01:44:29.739Z,8.20
2022-11-22T01:46:57.260Z,8.10
2022-11-22T01:49:24.775Z,8.40
2022-11-22T01:51:52.330Z,8.30
2022-11-22T01:54:19.835Z,8.30
2022-11-22T01:56:47.374Z,8.20
2022-11-22T01:59:15.408Z,8.10
2022-11-22T02:01:42.977Z,8.10
2022-11-22T02:04:11.204Z,8.00
2022-11-22T02:06:54.483Z,8.20
2022-11-22T02:09:22.058Z,8.20
2022-11-22T02:11:49.577Z,8.20
2022-11-22T02:14:17.128Z,8.10
2022-11-22T02:16:45.452Z,7.90
2022-11-22T02:19:12.988Z,8.00
2022-11-22T02:21:40.871Z,7.90
2022-11-22T02:24:20.031Z,7.90
2022-11-22T02:26:47.652Z,7.80
2022-11-22T02:29:15.175Z,7.80
2022-11-22T02:31:43.460Z,8.00
2022-11-22T02:34:11.821Z,8.00
2022-11-22T02:36:39.346Z,7.90
2022-11-22T02:39:06.861Z,7.90
2022-11-22T02:41:36.059Z,7.80
2022-11-22T02:44:04.372Z,7.80
2022-11-22T02:46:31.899Z,7.70
2022-11-22T02:49:01.420Z,7.70
2022-11-22T02:51:28.939Z,7.70
2022-11-22T02:53:56.462Z,7.70
2022-11-22T02:56:24.025Z,7.70
2022-11-22T02:58:51.559Z,7.80
2022-11-22T03:01:19.143Z,7.80
2022-11-22T03:03:46.689Z,7.80
2022-11-22T03:06:14.217Z,7.70
2022-11-22T03:08:42.494Z,7.70
2022-11-22T03:11:10.816Z,7.60
2022-11-22T03:13:38.333Z,7.60
2022-11-22T03:16:06.605Z,7.60
2022-11-22T03:18:35.312Z,7.60
2022-11-22T03:21:02.838Z,7.50
2022-11-22T03:23:30.360Z,7.50
2022-11-22T03:25:57.944Z,7.50
2022-11-22T03:28:25.449Z,7.40
2022-11-22T03:30:52.954Z,7.40
2022-11-22T03:33:20.784Z,7.40
2022-11-22T03:35:48.320Z,7.30
2022-11-22T03:38:15.824Z,7.50
2022-11-22T03:40:43.398Z,7.50
2022-11-22T03:43:10.923Z,7.50
2022-11-22T03:45:38.430Z,7.40
2022-11-22T03:48:05.964Z,7.40
2022-11-22T03:50:33.480Z,7.30
2022-11-22T03:53:01.772Z,7.30
2022-11-22T03:55:29.346Z,7.30
2022-11-22T03:57:56.880Z,7.30
2022-11-22T04:00:24.416Z,7.20
2022-11-22T04:02:51.980Z,7.20
2022-11-22T04:05:19.493Z,7.20
2022-11-22T04:07:47.128Z,7.40
2022-11-22T04:10:17.770Z,7.40
2022-11-22T04:12:42.216Z,7.30
2022-11-22T04:15:09.764Z,7.20
2022-11-22T04:17:46.792Z,7.20
2022-11-22T04:20:41.707Z,7.10
2022-11-22T04:23:09.269Z,7.30
2022-11-22T04:25:36.843Z,7.30
2022-11-22T04:28:05.097Z,7.20
2022-11-22T04:30:50.797Z,7.10
2022-11-22T04:33:18.293Z,7.10
2022-11-22T04:35:45.817Z,7.10
2022-11-22T04:38:13.382Z,7.10
2022-11-22T04:40:40.911Z,7.00
2022-11-22T04:43:27.110Z,7.00
2022-11-22T04:45:54.648Z,6.90
2022-11-22T04:48:22.201Z,6.90
2022-11-22T04:51:08.495Z,6.90
2022-11-22T04:53:36.027Z,6.90
2022-11-22T04:56:03.542Z,6.90
2022-11-22T04:58:31.855Z,6.80
2022-11-22T05:00:59.440Z,6.80
2022-11-22T05:03:26.940Z,6.80
2022-11-22T05:05:54.468Z,6.80
2022-11-22T05:08:21.990Z,6.80
2022-11-22T05:10:49.506Z,7.00
2022-11-22T05:13:17.100Z,7.00
2022-11-22T05:15:44.638Z,7.00
2022-11-22T05:18:12.916Z,6.90
2022-11-22T05:20:41.289Z,6.80
2022-11-22T05:23:26.753Z,6.80
2022-11-22T05:25:55.222Z,6.80
2022-11-22T05:28:22.748Z,6.70
2022-11-22T05:30:50.252Z,6.70
2022-11-22T05:33:18.318Z,6.70
2022-11-22T05:35:45.834Z,6.60
2022-11-22T05:38:13.368Z,6.60
2022-11-22T05:40:40.953Z,6.80
2022-11-22T05:43:08.469Z,6.80
2022-11-22T05:45:35.993Z,6.80
2022-11-22T05:48:03.558Z,6.70
2022-11-22T05:50:31.083Z,6.70
2022-11-22T05:52:58.607Z,6.70
2022-11-22T05:55:26.151Z,6.60
2022-11-22T05:57:53.692Z,6.60
2022-11-22T06:00:21.233Z,6.60
2022-11-22T06:02:48.827Z,6.60
2022-11-22T06:05:16.369Z,6.60
2022-11-22T06:07:43.924Z,6.60
2022-11-22T06:10:11.478Z,6.70
2022-11-22T06:12:38.993Z,7.00
2022-11-22T06:15:06.528Z,7.00
2022-11-22T06:17:34.132Z,6.90
2022-11-22T06:20:06.234Z,6.80
2022-11-22T06:22:29.931Z,6.80
2022-11-22T06:24:57.505Z,6.70
2022-11-22T06:27:25.030Z,6.70
2022-11-22T06:29:52.545Z,6.90
2022-11-22T06:32:20.080Z,6.80
2022-11-22T06:34:47.603Z,6.80
2022-11-22T06:37:17.835Z,6.70
2022-11-22T06:39:45.401Z,6.70
2022-11-22T06:42:12.938Z,6.60
2022-11-22T06:44:40.454Z,6.60
2022-11-22T06:47:08.282Z,6.80
2022-11-22T06:49:35.796Z,6.80
2022-11-22T06:52:03.320Z,6.70
2022-11-22T06:54:32.164Z,6.70
2022-11-22T06:56:59.709Z,6.60
2022-11-22T06:59:27.509Z,6.60
2022-11-22T07:01:54.872Z,6.50
2022-11-22T07:04:22.315Z,6.50
2022-11-22T07:06:49.838Z,6.50
2022-11-22T07:09:18.165Z,6.50
2022-11-22T07:11:45.732Z,6.50
2022-11-22T07:14:13.232Z,6.50
2022-11-22T07:16:40.787Z,6.50
2022-11-22T07:19:08.319Z,6.50
2022-11-22T07:21:35.834Z,6.40
2022-11-22T07:24:03.399Z,6.40
2022-11-22T07:26:30.903Z,6.60
2022-11-22T07:28:58.421Z,6.70
2022-11-22T07:31:25.993Z,6.60
2022-11-22T07:33:53.530Z,6.80
2022-11-22T07:36:21.046Z,6.80
2022-11-22T07:38:48.649Z,6.80
2022-11-22T07:41:16.146Z,6.70
2022-11-22T07:43:43.656Z,6.90
2022-11-22T07:46:22.908Z,6.90
2022-11-22T07:48:50.443Z,6.80
2022-11-22T07:51:17.963Z,7.00
2022-11-22T07:53:45.574Z,7.00
2022-11-22T07:56:13.150Z,6.90
2022-11-22T07:58:40.671Z,6.80
2022-11-22T08:01:08.402Z,6.70
2022-11-22T08:03:35.873Z,6.60
2022-11-22T08:06:03.423Z,6.60
2022-11-22T08:08:30.987Z,6.60
2022-11-22T08:10:58.517Z,6.60
2022-11-22T08:13:26.038Z,6.50
2022-11-22T08:15:54.907Z,6.50
2022-11-22T08:18:21.208Z,6.50
2022-11-22T08:20:48.722Z,6.50
2022-11-22T08:23:16.377Z,6.50
2022-11-22T08:25:43.909Z,6.50
2022-11-22T08:28:11.435Z,6.70
2022-11-22T08:30:39.140Z,6.70
2022-11-22T08:33:06.668Z,6.70
2022-11-22T08:35:34.185Z,6.70
2022-11-22T08:38:02.507Z,6.70
2022-11-22T08:40:30.032Z,6.70
2022-11-22T08:42:57.597Z,6.70
2022-11-22T08:45:25.150Z,6.70
2022-11-22T08:47:52.659Z,6.70
2022-11-22T08:50:20.199Z,6.70
2022-11-22T08:52:47.833Z,6.80
2022-11-22T08:55:15.351Z,6.80
2022-11-22T08:57:42.874Z,6.80
2022-11-22T09:00:10.624Z,6.80
2022-11-22T09:02:38.139Z,6.90
2022-11-22T09:05:05.665Z,6.90
2022-11-22T09:10:00.853Z,6.90
2022-11-22T09:12:28.387Z,6.90
2022-11-22T09:14:55.981Z,6.90
2022-11-22T09:17:23.516Z,6.90
2022-11-22T09:19:51.069Z,7.10
2022-11-22T09:22:19.153Z,7.40
2022-11-22T09:24:46.237Z,7.40
2022-11-22T09:27:13.764Z,7.30
2022-11-22T09:29:42.129Z,7.40
2022-11-22T09:32:09.679Z,7.30
2022-11-22T09:34:37.273Z,7.30
2022-11-22T09:37:04.827Z,7.20
2022-11-22T09:39:32.559Z,7.10
2022-11-22T09:42:00.674Z,7.30
2022-11-22T09:45:00.204Z,7.20
2022-11-22T09:47:42.414Z,7.20
2022-11-22T09:50:15.661Z,7.10
2022-11-22T09:52:54.941Z,7.10
2022-11-22T09:55:28.651Z,7.00
2022-11-22T09:58:11.112Z,6.90
2022-11-22T10:00:38.830Z,6.90
2022-11-22T10:03:09.115Z,7.00
2022-11-22T10:05:46.359Z,7.00
2022-11-22T10:08:28.969Z,6.90
2022-11-22T10:10:56.594Z,7.00
2022-11-22T10:13:41.760Z,7.20
2022-11-22T10:16:33.939Z,7.50
2022-11-22T10:19:12.908Z,7.50
2022-11-22T10:21:40.502Z,7.40
2022-11-22T10:24:08.064Z,7.30
2022-11-22T10:26:36.339Z,7.30
2022-11-22T10:29:24.875Z,7.30
2022-11-22T10:32:10.988Z,7.30
2022-11-22T10:34:41.430Z,7.30
2022-11-22T10:37:14.556Z,7.30
2022-11-22T10:40:12.760Z,7.30
2022-11-22T10:42:56.167Z,7.20
2022-11-22T10:45:32.506Z,7.20
2022-11-22T10:48:05.516Z,7.20
2022-11-22T10:50:57.231Z,7.20
2022-11-22T10:53:39.829Z,7.30
2022-11-22T10:56:25.433Z,7.50
2022-11-22T10:59:24.411Z,7.80
2022-11-22T11:01:51.390Z,8.00
2022-11-22T11:04:18.973Z,7.90
2022-11-22T11:10:09.207Z,8.20
2022-11-22T11:11:51.780Z,8.20
2022-11-22T11:14:28.328Z,8.00
2022-11-22T11:16:55.750Z,7.90
2022-11-22T11:19:26.248Z,7.80
2022-11-22T11:21:56.697Z,7.80
2022-11-22T11:24:24.230Z,7.70
2022-11-22T11:26:54.517Z,7.70
2022-11-22T11:29:24.816Z,7.60
2022-11-22T11:31:52.359Z,7.90
2022-11-22T11:34:25.507Z,7.90
2022-11-22T11:36:53.090Z,7.90
2022-11-22T11:39:20.661Z,7.80
2022-11-22T11:41:48.241Z,7.80
2022-11-22T11:44:25.058Z,7.80
2022-11-22T11:46:52.613Z,7.80
2022-11-22T11:49:22.657Z,7.80
2022-11-22T11:51:50.282Z,7.80
2022-11-22T11:54:26.964Z,7.80
2022-11-22T11:56:59.932Z,7.80
2022-11-22T11:59:33.499Z,7.80
2022-11-22T12:02:03.625Z,7.80
2022-11-22T12:04:31.410Z,7.80
2022-11-22T12:07:02.918Z,7.80
2022-11-22T12:09:28.985Z,8.00
2022-11-22T12:11:56.487Z,8.00
2022-11-22T12:14:24.020Z,8.00
2022-11-22T12:16:51.900Z,8.00
2022-11-22T12:19:28.024Z,8.00
2022-11-22T12:22:04.298Z,8.00
2022-11-22T12:25:24.369Z,8.00
2022-11-22T12:27:05.364Z,8.00
2022-11-22T12:29:32.918Z,8.10
2022-11-22T12:32:12.671Z,8.30
2022-11-22T12:34:48.940Z,8.30
2022-11-22T12:37:19.104Z,8.30
2022-11-22T12:39:50.321Z,8.30
2022-11-22T12:42:23.638Z,8.30
2022-11-22T12:44:54.070Z,8.30
2022-11-22T12:47:21.580Z,8.20
2022-11-22T12:49:57.740Z,8.20
2022-11-22T12:52:39.978Z,8.40
2022-11-22T12:55:19.286Z,8.40
2022-11-22T12:58:05.283Z,8.40
2022-11-22T13:00:32.838Z,8.30
2022-11-22T13:03:06.359Z,8.30
2022-11-22T13:05:48.831Z,8.20
2022-11-22T13:08:19.023Z,8.20
2022-11-22T13:10:52.318Z,8.20
2022-11-22T13:13:28.770Z,8.20
2022-11-22T13:15:56.239Z,8.20
2022-11-22T13:18:26.461Z,8.20
2022-11-22T13:20:56.428Z,8.20
2022-11-22T13:23:30.175Z,8.20
2022-11-22T13:26:22.139Z,8.10
2022-11-22T13:28:50.412Z,8.10
2022-11-22T13:31:17.946Z,8.10
2022-11-22T13:33:57.385Z,8.10
2022-11-22T13:36:28.055Z,8.10
2022-11-22T13:38:58.226Z,8.10
2022-11-22T13:41:34.651Z,8.30
2022-11-22T13:44:20.505Z,8.30
2022-11-22T13:46:50.751Z,8.30
2022-11-22T13:49:48.878Z,8.50
2022-11-22T13:52:13.793Z,8.50
2022-11-22T13:54:41.379Z,8.50
2022-11-22T13:57:27.413Z,8.40
2022-11-22T14:00:13.263Z,8.50
2022-11-22T14:02:47.599Z,8.40
2022-11-22T14:05:29.846Z,8.40
2022-11-22T14:07:57.489Z,8.30
2022-11-22T14:10:37.340Z,8.30
2022-11-22T14:13:14.426Z,8.30
2022-11-22T14:15:44.698Z,8.30
2022-11-22T14:18:33.829Z,8.20
2022-11-22T14:21:19.329Z,8.20
2022-11-22T14:23:52.959Z,8.10
2022-11-22T14:26:33.098Z,8.00
2022-11-22T14:29:31.253Z,8.00
2022-11-22T14:32:01.488Z,8.00
2022-11-22T14:34:29.444Z,8.00
2022-11-22T14:37:11.511Z,8.00
2022-11-22T14:39:44.871Z,8.00
2022-11-22T14:42:37.113Z,8.00
2022-11-22T14:45:04.628Z,8.00
2022-11-22T14:47:32.717Z,7.90
2022-11-22T14:50:00.288Z,8.00
2022-11-22T14:52:27.839Z,8.00
2022-11-22T14:54:55.349Z,8.10
2022-11-22T14:57:22.947Z,8.20
2022-11-22T15:00:05.306Z,8.20
2022-11-22T15:03:09.696Z,8.10
2022-11-22T15:09:17.241Z,8.00
2022-11-22T15:09:19.914Z,8.00
2022-11-22T15:11:35.678Z,7.90
2022-11-22T15:14:41.251Z,8.10
2022-11-22T15:57:47.681Z,8.00
2022-11-22T16:00:21.465Z,8.00
2022-11-22T16:02:54.654Z,8.00
2022-11-22T16:06:05.964Z,8.00
2022-11-22T16:08:04.986Z,8.30
2022-11-22T16:10:35.237Z,8.20
2022-11-22T16:13:12.568Z,8.30
2022-11-22T16:15:40.098Z,8.30
2022-11-22T16:18:25.693Z,8.20
2022-11-22T16:21:13.835Z,8.20
2022-11-22T16:23:44.503Z,8.20
2022-11-22T16:26:17.681Z,8.20
2022-11-22T16:28:45.204Z,8.20
2022-11-22T16:31:24.434Z,8.20
2022-11-22T16:33:51.962Z,8.20
2022-11-22T16:36:19.543Z,8.20
2022-11-22T16:38:47.124Z,8.20
2022-11-22T16:41:26.860Z,8.10
2022-11-22T16:43:57.366Z,8.10
2022-11-22T16:46:24.902Z,8.40
2022-11-22T16:48:52.425Z,8.60
2022-11-22T16:51:25.948Z,8.80
2022-11-22T16:53:54.245Z,8.90
2022-11-22T16:56:24.712Z,8.90
2022-11-22T16:58:52.304Z,8.80
2022-11-22T17:01:19.954Z,8.70
2022-11-22T17:03:47.356Z,8.60
2022-11-22T17:06:17.860Z,8.50
2022-11-22T17:08:45.405Z,8.50
2022-11-22T17:11:12.969Z,8.40
2022-11-22T17:13:40.515Z,8.40
2022-11-22T17:16:09.850Z,8.60
2022-11-22T17:18:38.124Z,8.50
2022-11-22T17:21:24.358Z,8.50
2022-11-22T17:23:51.885Z,8.50
2022-11-22T17:26:19.406Z,8.40
2022-11-22T17:28:47.010Z,8.40
2022-11-22T17:31:14.561Z,8.40
2022-11-22T17:33:42.089Z,8.40
2022-11-22T17:36:28.134Z,8.30
2022-11-22T17:38:55.698Z,8.30
2022-11-22T17:41:23.203Z,8.50
2022-11-22T17:43:50.768Z,8.50
2022-11-22T17:46:18.293Z,8.50
2022-11-22T17:48:51.439Z,8.40
2022-11-22T17:51:19.024Z,8.40
2022-11-22T17:53:46.539Z,8.40
2022-11-22T17:56:14.083Z,8.40
2022-11-22T17:58:41.650Z,8.40
2022-11-22T18:01:09.164Z,8.30
2022-11-22T18:03:36.773Z,8.30
2022-11-22T18:06:04.263Z,8.30
2022-11-22T18:08:32.592Z,8.20
2022-11-22T18:11:00.119Z,8.20
2022-11-22T18:13:31.381Z,8.20
2022-11-22T18:16:03.247Z,8.20
2022-11-22T18:18:55.271Z,8.20
2022-11-22T18:20:56.799Z,8.20
2022-11-22T18:23:24.342Z,8.20
2022-11-22T18:25:52.464Z,8.40
2022-11-22T18:28:19.475Z,8.40
2022-11-22T18:30:46.966Z,8.60
2022-11-22T18:33:14.490Z,8.60
2022-11-22T18:35:42.064Z,8.60
2022-11-22T18:38:10.347Z,8.50
2022-11-22T18:40:37.863Z,8.50
2022-11-22T18:43:05.416Z,8.50
2022-11-22T18:45:32.962Z,8.40
2022-11-22T18:48:03.431Z,8.40
2022-11-22T18:50:31.007Z,8.60
2022-11-22T18:52:58.520Z,8.60
2022-11-22T18:55:26.045Z,8.50
2022-11-22T18:57:53.609Z,8.50
2022-11-22T19:00:21.135Z,8.40
2022-11-22T19:02:48.660Z,8.40
2022-11-22T19:05:16.233Z,8.40
2022-11-22T19:07:43.817Z,8.30
2022-11-22T19:10:11.311Z,8.30
2022-11-22T19:12:38.875Z,8.30
2022-11-22T19:15:06.452Z,8.30
2022-11-22T19:17:33.985Z,8.20
2022-11-22T19:20:01.560Z,8.20
2022-11-22T19:22:29.074Z,8.20
2022-11-22T19:24:57.367Z,8.20
2022-11-22T19:27:25.689Z,8.20
2022-11-22T19:29:53.301Z,8.20
2022-11-22T19:32:20.769Z,8.20
2022-11-22T19:34:49.092Z,8.20
2022-11-22T19:37:16.608Z,8.20
2022-11-22T19:39:44.131Z,8.20
2022-11-22T19:42:11.700Z,8.20
2022-11-22T19:44:39.221Z,8.30
2022-11-22T19:47:06.765Z,8.30
2022-11-22T19:49:34.339Z,8.30
2022-11-22T19:52:01.894Z,8.20
2022-11-22T19:54:29.389Z,8.20
2022-11-22T19:56:56.954Z,8.20
2022-11-22T19:59:24.458Z,8.20
2022-11-22T20:01:52.014Z,8.10
2022-11-22T20:04:19.590Z,8.40
2022-11-22T20:06:50.083Z,8.40
2022-11-22T20:09:15.408Z,8.30
2022-11-22T20:11:42.989Z,8.30
2022-11-22T20:14:10.519Z,8.30
2022-11-22T20:16:38.818Z,8.20
2022-11-22T20:19:06.392Z,8.30
2022-11-22T20:21:33.940Z,8.30
2022-11-22T20:24:01.472Z,8.20
2022-11-22T20:26:30.690Z,8.20
2022-11-22T20:29:00.838Z,8.20
2022-11-22T20:31:28.360Z,8.20
2022-11-22T20:33:56.681Z,8.20
2022-11-22T20:36:24.205Z,8.20
2022-11-22T20:38:51.731Z,8.20
2022-11-22T20:41:19.311Z,8.20
2022-11-22T20:43:47.597Z,8.20
2022-11-22T20:46:15.113Z,8.20
2022-11-22T20:48:56.834Z,8.20
2022-11-22T20:51:25.119Z,8.20
2022-11-22T20:53:52.694Z,8.20
2022-11-22T20:56:20.219Z,8.20
2022-11-22T20:58:47.744Z,8.20
2022-11-22T21:01:21.346Z,8.10
2022-11-22T21:03:49.601Z,8.20
2022-11-22T21:06:17.210Z,8.10
2022-11-22T21:08:44.697Z,8.10
2022-11-22T21:11:12.974Z,8.20
2022-11-22T21:13:40.503Z,8.20
2022-11-22T21:16:21.542Z,8.20
2022-11-22T21:18:35.593Z,8.20
2022-11-22T21:21:03.166Z,8.40
2022-11-22T21:23:30.682Z,8.50
2022-11-22T21:25:58.190Z,8.50
2022-11-22T21:28:25.712Z,8.50
2022-11-22T21:30:53.297Z,8.40
2022-11-22T21:33:20.812Z,8.60
2022-11-22T21:35:49.094Z,8.90
2022-11-22T21:38:16.658Z,8.90
2022-11-22T21:40:58.390Z,8.70
2022-11-22T21:43:21.939Z,8.60
2022-11-22T21:45:49.464Z,8.60
2022-11-22T21:48:17.737Z,8.60
2022-11-22T21:50:45.330Z,8.50
2022-11-22T21:53:12.865Z,8.60
2022-11-22T21:55:41.147Z,8.50
2022-11-22T21:58:08.712Z,8.50
2022-11-22T22:00:36.995Z,8.50
2022-11-22T22:03:04.522Z,8.50
2022-11-22T22:05:32.084Z,8.50
2022-11-22T22:08:00.451Z,8.50
2022-11-22T22:10:28.641Z,8.50
2022-11-22T22:12:56.985Z,8.50
2022-11-22T22:15:24.509Z,8.50
2022-11-22T22:17:54.927Z,8.50
2022-11-22T22:20:22.494Z,8.50
2022-11-22T22:22:50.019Z,8.50
2022-11-22T22:25:17.544Z,8.50
2022-11-22T22:27:45.089Z,8.50
2022-11-22T22:30:12.650Z,8.50
2022-11-22T22:32:40.186Z,8.50
2022-11-22T22:35:07.798Z,8.60
2022-11-22T22:37:35.314Z,8.60
2022-11-22T22:40:02.829Z,8.60
2022-11-22T22:42:30.404Z,8.50
2022-11-22T22:44:58.725Z,8.60
2022-11-22T22:47:26.988Z,8.60
2022-11-22T22:49:54.573Z,8.50
2022-11-22T22:52:22.098Z,8.50
2022-11-22T22:54:49.613Z,8.50
2022-11-22T22:57:17.147Z,8.50
2022-11-22T22:59:44.675Z,8.50
2022-11-22T23:02:12.211Z,8.50
2022-11-22T23:04:39.760Z,8.50
2022-11-22T23:07:07.374Z,8.50
2022-11-22T23:09:34.821Z,8.50
2022-11-22T23:12:11.346Z,8.50
2022-11-22T23:14:41.715Z,8.50
2022-11-22T23:17:09.261Z,8.50
2022-11-22T23:19:37.589Z,8.80
2022-11-22T23:22:05.124Z,8.80
2022-11-22T23:24:32.669Z,8.80
2022-11-22T23:27:00.225Z,8.70
2022-11-22T23:29:28.620Z,8.70
2022-11-22T23:31:56.050Z,8.70
2022-11-22T23:34:23.611Z,8.70
2022-11-22T23:36:51.120Z,8.70
2022-11-22T23:39:18.645Z,8.70
2022-11-22T23:41:46.189Z,8.70
2022-11-22T23:44:14.481Z,8.70
2022-11-22T23:46:42.018Z,8.70
2022-11-22T23:49:09.585Z,8.70
2022-11-22T23:51:37.855Z,8.70
2022-11-22T23:54:05.402Z,8.70
2022-11-22T23:56:32.937Z,8.70
2022-11-22T23:59:00.440Z,8.90
